Time;durP1;ratioP1;P1;durP2;ratioP2;P2;SDS_P1;SDS_P2;PMS_P1;PMS_P2;Temp;Humidity;BMP_temperature;BMP_pressure;BME280_temperature;BME280_humidity;BME280_pressure;Samples;Min_cycle;Max_cycle;Signal;HPM_P1;HPM_P2
2022/09/03 00:06:50;;;;;;;5.20;1.05;;;18.40;82.70;;;;;;4959565;29;20376;-71
2022/09/03 00:19:33;;;;;;;1.70;0.90;;;18.30;82.60;;;;;;4959278;29;20039;-71
2022/09/03 00:26:02;;;;;;;1.98;1.20;;;18.10;84.60;;;;;;4959265;29;20027;-71
2022/09/03 00:35:19;;;;;;;3.47;1.23;;;17.70;85.60;;;;;;4918984;29;20086;-71
2022/09/03 00:44:31;;;;;;;1.85;1.30;;;17.50;88.00;;;;;;4919123;29;20052;-71
2022/09/03 01:07:41;;;;;;;3.60;1.10;;;17.50;86.20;;;;;;4956921;29;20066;-71
2022/09/03 01:14:24;;;;;;;5.53;0.98;;;17.60;87.20;;;;;;4956924;29;20500;-71
2022/09/03 01:24:22;;;;;;;1.42;1.02;;;17.20;86.60;;;;;;4976111;28;20114;-71
2022/09/03 01:30:21;;;;;;;4.63;1.50;;;17.10;89.10;;;;;;4975794;28;20349;-71
2022/09/03 01:36:27;;;;;;;3.08;0.85;;;16.70;89.00;;;;;;4977788;28;20085;-71
2022/09/03 01:45:48;;;;;;;3.70;1.40;;;16.60;90.30;;;;;;4981533;28;20035;-71
2022/09/03 01:55:00;;;;;;;2.30;1.00;;;16.70;90.20;;;;;;4981337;28;20057;-71
2022/09/03 02:04:25;;;;;;;2.50;1.08;;;16.60;89.70;;;;;;4980900;28;20065;-71
2022/09/03 02:10:21;;;;;;;4.40;1.20;;;16.40;90.90;;;;;;4981004;28;20058;-71
2022/09/03 02:19:31;;;;;;;2.22;0.90;;;16.80;89.70;;;;;;4981079;28;20399;-71
2022/09/03 02:25:22;;;;;;;2.45;1.08;;;17.00;88.50;;;;;;4980761;28;20077;-71
2022/09/03 02:34:31;;;;;;;3.08;1.35;;;17.30;87.70;;;;;;4980591;28;20026;-71
2022/09/03 02:40:19;;;;;;;3.53;1.20;;;17.30;89.50;;;;;;4980471;28;20077;-71
2022/09/03 02:49:30;;;;;;;2.53;1.15;;;17.40;88.80;;;;;;4980318;28;20445;-71
2022/09/03 02:55:18;;;;;;;1.77;1.30;;;17.20;88.90;;;;;;4979905;28;20114;-71
2022/09/03 03:04:32;;;;;;;4.00;1.08;;;17.20;89.50;;;;;;4980051;28;20158;-71
2022/09/03 03:10:19;;;;;;;1.88;1.20;;;16.90;90.50;;;;;;4979935;28;20028;-71
2022/09/03 03:26:18;;;;;;;3.38;1.20;;;16.30;92.50;;;;;;4960329;29;20025;-71
2022/09/03 03:35:28;;;;;;;3.30;1.15;;;16.70;90.90;;;;;;4960178;29;20034;-71
2022/09/03 03:41:20;;;;;;;3.28;1.10;;;17.00;88.00;;;;;;4960022;29;20046;-71
2022/09/03 03:57:14;;;;;;;3.45;1.48;;;17.50;86.40;;;;;;4959457;29;20483;-71
2022/09/03 04:10:06;;;;;;;1.90;1.00;;;17.10;88.90;;;;;;4959590;29;20062;-71
2022/09/03 04:19:31;;;;;;;1.58;1.15;;;16.60;91.50;;;;;;4978513;28;20133;-71
2022/09/03 04:25:18;;;;;;;3.78;1.30;;;16.20;92.60;;;;;;4978485;28;20038;-71
2022/09/03 04:34:28;;;;;;;2.53;1.10;;;16.20;93.70;;;;;;4978410;28;20026;-71
2022/09/03 04:40:16;;;;;;;2.28;1.23;;;16.20;93.40;;;;;;4978390;28;20034;-71
2022/09/03 04:46:06;;;;;;;3.92;1.70;;;16.20;94.20;;;;;;4978224;28;20331;-71
2022/09/03 04:55:16;;;;;;;10.20;2.15;;;16.50;91.40;;;;;;4978128;28;20045;-71
2022/09/03 05:04:31;;;;;;;3.42;1.40;;;17.30;89.00;;;;;;4978157;28;20327;-71
2022/09/03 05:10:19;;;;;;;2.85;1.40;;;17.70;87.70;;;;;;4978069;28;20057;-71
2022/09/03 05:16:33;;;;;;;2.35;1.25;;;17.80;88.50;;;;;;4971216;28;20041;-71
2022/09/03 05:25:43;;;;;;;3.47;1.08;;;18.20;91.20;;;;;;4962548;29;20022;-71
2022/09/03 05:34:52;;;;;;;5.38;1.15;;;18.40;90.80;;;;;;4962374;29;20026;-71
2022/09/03 05:44:02;;;;;;;2.35;1.15;;;18.60;88.30;;;;;;4962185;29;20129;-71
2022/09/03 05:49:50;;;;;;;2.70;1.05;;;18.60;90.70;;;;;;4961855;29;20074;-71
2022/09/03 05:55:38;;;;;;;1.77;0.80;;;18.70;84.60;;;;;;4962002;29;20043;-71
2022/09/03 06:04:48;;;;;;;1.98;1.05;;;18.90;84.70;;;;;;4961853;29;20095;-71
2022/09/03 06:14:06;;;;;;;1.40;1.00;;;19.10;88.50;;;;;;4961692;29;20042;-71
2022/09/03 06:24:06;;;;;;;7.35;2.85;;;19.30;88.20;;;;;;4980645;28;19932;-71
2022/09/03 06:30:06;;;;;;;5.45;1.25;;;19.40;85.60;;;;;;4980663;28;20085;-71
2022/09/03 06:35:58;;;;;;;3.47;0.90;;;19.40;83.70;;;;;;4980595;28;20030;-71
2022/09/03 06:41:50;;;;;;;5.10;1.08;;;19.50;84.90;;;;;;4980446;28;20082;-71
2022/09/03 06:47:38;;;;;;;2.65;0.80;;;19.60;83.00;;;;;;4980365;28;20062;-71
2022/09/03 06:53:28;;;;;;;2.83;1.00;;;19.80;85.30;;;;;;4979973;28;20042;-71
2022/09/03 06:59:16;;;;;;;1.27;0.82;;;20.20;84.20;;;;;;4980133;28;20430;-71
2022/09/03 07:05:04;;;;;;;1.40;1.00;;;20.20;84.30;;;;;;4979988;28;20434;-71
2022/09/03 07:14:16;;;;;;;2.28;1.25;;;20.20;85.10;;;;;;4979842;28;20030;-71
2022/09/03 07:27:13;;;;;;;4.47;1.20;;;21.10;84.20;;;;;;4979660;28;20037;-71
2022/09/03 07:33:57;;;;;;;2.38;1.10;;;21.80;78.50;;;;;;4979177;28;20087;-71
2022/09/03 07:39:45;;;;;;;4.57;0.90;;;22.40;77.70;;;;;;4978761;28;20375;-71
2022/09/03 07:45:33;;;;;;;1.65;1.10;;;22.90;77.20;;;;;;4979309;28;20022;-71
2022/09/03 07:55:13;;;;;;;2.55;0.95;;;25.20;70.40;;;;;;4979161;28;20025;-71
2022/09/03 08:04:23;;;;;;;5.10;1.60;;;26.70;66.80;;;;;;4978986;28;20109;-71
2022/09/03 08:14:00;;;;;;;2.95;1.00;;;27.60;68.30;;;;;;4978577;28;20045;-71
2022/09/03 08:19:47;;;;;;;4.97;1.15;;;27.80;65.40;;;;;;4978710;28;20033;-71
2022/09/03 08:22:38;;;;;;;2.67;1.15;;;27.90;65.60;;;;;;4959522;28;20046;-71
2022/09/03 08:35:10;;;;;;;2.85;0.93;;;27.70;66.80;;;;;;4958916;29;20058;-71
2022/09/03 08:44:38;;;;;;;3.17;1.05;;;28.00;62.00;;;;;;4958749;29;20086;-71
2022/09/03 08:54:09;;;;;;;2.75;1.00;;;28.80;63.70;;;;;;4958940;29;20038;-69
2022/09/03 09:04:05;;;;;;;4.18;1.02;;;28.20;63.90;;;;;;4958825;29;20323;-71
2022/09/03 09:14:02;;;;;;;3.28;0.98;;;28.70;61.30;;;;;;4958787;29;20462;-69
2022/09/03 09:23:41;;;;;;;1.23;0.70;;;28.90;59.90;;;;;;4964451;28;20106;-71
2022/09/03 09:29:32;;;;;;;2.00;1.00;;;29.00;60.00;;;;;;4977834;28;20533;-69
2022/09/03 09:38:44;;;;;;;1.73;1.00;;;29.00;59.10;;;;;;4977515;28;20034;-69
2022/09/03 09:44:31;;;;;;;2.42;1.10;;;28.90;59.50;;;;;;4977751;28;20038;-69
2022/09/03 09:54:24;;;;;;;5.65;1.23;;;28.50;64.90;;;;;;4977428;28;20038;-69
2022/09/03 10:00:14;;;;;;;2.15;1.15;;;29.30;61.00;;;;;;4977655;28;20441;-69
2022/09/03 10:06:52;;;;;;;7.03;1.30;;;28.10;67.10;;;;;;4981056;28;20022;-69
2022/09/03 10:12:27;;;;;;;5.70;1.42;;;27.30;66.30;;;;;;4980811;28;20046;-69
2022/09/03 10:18:33;;;;;;;6.10;1.27;;;26.40;68.40;;;;;;4980684;28;20042;-68
2022/09/03 10:28:37;;;;;;;3.92;0.95;;;25.50;68.20;;;;;;4961133;29;20118;-69
2022/09/03 10:34:41;;;;;;;1.48;1.00;;;25.10;73.00;;;;;;4961348;29;20030;-69
2022/09/03 10:54:12;;;;;;;2.42;0.90;;;25.50;71.70;;;;;;4960770;29;20043;-71
2022/09/03 11:00:14;;;;;;;2.05;1.30;;;26.00;68.20;;;;;;4960881;29;20022;-71
2022/09/03 11:06:14;;;;;;;1.52;0.98;;;26.00;72.60;;;;;;4960772;29;20051;-71
2022/09/03 11:15:31;;;;;;;1.92;1.00;;;25.60;69.40;;;;;;4959390;28;20490;-71
2022/09/03 11:21:24;;;;;;;2.67;0.90;;;25.00;75.80;;;;;;4960275;29;20367;-71
2022/09/03 11:34:53;;;;;;;2.78;0.98;;;25.00;74.50;;;;;;4960330;29;20087;-71
2022/09/03 11:44:19;;;;;;;3.38;1.20;;;24.90;75.10;;;;;;4960088;29;20074;-71
2022/09/03 11:50:19;;;;;;;2.40;1.10;;;24.90;74.40;;;;;;4959968;29;20038;-71
2022/09/03 11:56:07;;;;;;;2.13;1.30;;;24.60;73.70;;;;;;4959850;29;20061;-71
2022/09/03 12:15:45;;;;;;;2.25;1.17;;;26.50;70.50;;;;;;4919619;29;20111;-71
2022/09/03 12:25:18;;;;;;;3.65;1.17;;;26.20;68.90;;;;;;4918969;29;20026;-71
2022/09/03 12:31:20;;;;;;;4.43;1.10;;;25.60;69.80;;;;;;4938219;29;20078;-71
2022/09/03 12:37:20;;;;;;;2.90;1.00;;;24.80;74.40;;;;;;4938178;29;20034;-71
2022/09/03 12:44:01;;;;;;;3.13;1.33;;;25.60;75.40;;;;;;4978444;28;20429;-71
2022/09/03 12:49:56;;;;;;;3.75;1.33;;;26.10;70.40;;;;;;4978356;28;20061;-68
2022/09/03 12:55:57;;;;;;;2.40;1.15;;;25.90;71.50;;;;;;4978026;28;20033;-69
2022/09/03 13:05:17;;;;;;;2.35;1.02;;;25.80;67.70;;;;;;4978156;28;20021;-71
2022/09/03 13:14:27;;;;;;;5.80;1.05;;;25.70;71.90;;;;;;4978085;28;20057;-71
2022/09/03 13:37:09;;;;;;;4.55;1.10;;;25.10;71.20;;;;;;4956647;28;20426;-71
2022/09/03 13:46:30;;;;;;;2.05;1.25;;;24.20;71.50;;;;;;4960482;28;20026;-71
2022/09/03 13:59:03;;;;;;;6.57;1.20;;;24.50;73.20;;;;;;4961946;29;20134;-71
2022/09/03 14:05:05;;;;;;;3.47;1.40;;;24.60;75.00;;;;;;4961900;29;20039;-71
2022/09/03 14:11:18;;;;;;;2.78;1.30;;;24.60;73.50;;;;;;4961570;29;20387;-71
2022/09/03 14:24:17;;;;;;;2.10;1.50;;;24.90;72.50;;;;;;4961542;29;20035;-71
2022/09/03 14:27:09;;;;;;;4.97;1.52;;;24.60;72.20;;;;;;4971472;28;20039;-71
2022/09/03 14:36:48;;;;;;;2.63;1.33;;;24.40;76.00;;;;;;4980669;28;20025;-71
2022/09/03 14:52:47;;;;;;;2.03;1.30;;;24.40;75.50;;;;;;4980111;28;20094;-71
2022/09/03 14:58:35;;;;;;;9.75;2.00;;;24.70;76.30;;;;;;4980254;28;20514;-71
2022/09/03 15:34:41;;;;;;;2.13;1.08;;;23.60;78.80;;;;;;4977844;28;20097;-71
2022/09/03 15:44:01;;;;;;;1.88;1.10;;;23.20;78.90;;;;;;4979459;28;20066;-71
2022/09/03 15:50:00;;;;;;;3.80;1.63;;;23.10;80.10;;;;;;4979067;28;20342;-71
2022/09/03 15:56:20;;;;;;;3.45;1.20;;;22.80;81.20;;;;;;4979246;28;20061;-71
2022/09/03 16:05:45;;;;;;;1.92;1.10;;;22.90;82.40;;;;;;4937997;29;20098;-71
2022/09/03 16:14:59;;;;;;;4.75;1.67;;;22.90;80.20;;;;;;4938396;29;20035;-71
2022/09/03 16:21:10;;;;;;;2.33;1.35;;;22.90;83.40;;;;;;4938529;29;20067;-71
2022/09/03 16:27:30;;;;;;;3.33;1.40;;;23.00;83.60;;;;;;4937850;29;20152;-71
2022/09/03 16:33:58;;;;;;;2.88;1.20;;;22.90;85.20;;;;;;4919072;29;20123;-71
2022/09/03 16:39:51;;;;;;;4.43;1.60;;;22.90;85.90;;;;;;4958966;29;20070;-71
2022/09/03 16:46:11;;;;;;;3.63;1.20;;;22.90;85.70;;;;;;4959130;29;20065;-71
2022/09/03 16:56:07;;;;;;;3.40;1.50;;;22.50;86.90;;;;;;4958993;29;20482;-71
2022/09/03 17:02:10;;;;;;;4.32;1.50;;;22.50;87.80;;;;;;4958925;29;20363;-71
2022/09/03 17:15:02;;;;;;;2.35;1.40;;;22.10;87.60;;;;;;4956057;29;20067;-71
2022/09/03 17:21:01;;;;;;;2.30;1.40;;;22.00;88.10;;;;;;4962718;29;20030;-71
2022/09/03 17:26:55;;;;;;;2.08;1.42;;;22.00;88.50;;;;;;4962589;29;20139;-71
2022/09/03 17:36:12;;;;;;;2.08;1.20;;;21.80;89.20;;;;;;4962434;29;20030;-71
2022/09/03 17:52:22;;;;;;;4.32;1.63;;;21.80;90.00;;;;;;4962017;29;20082;-71
2022/09/03 17:58:19;;;;;;;2.58;1.70;;;21.60;90.30;;;;;;4962003;29;20462;-71
2022/09/03 18:04:29;;;;;;;3.67;1.75;;;21.50;91.30;;;;;;4961970;29;20115;-71
2022/09/03 18:10:41;;;;;;;5.32;2.00;;;21.50;90.50;;;;;;4961890;29;20427;-71
2022/09/03 18:16:32;;;;;;;4.85;2.15;;;21.40;90.70;;;;;;4961192;28;20110;-71
2022/09/03 20:14:43;;;;;;;3.10;2.65;;;18.40;98.00;;;;;;4978861;28;20074;-72
2022/09/03 20:20:40;;;;;;;4.22;2.65;;;18.40;98.00;;;;;;4978843;28;20037;-72
2022/09/03 20:27:18;;;;;;;5.68;3.25;;;18.50;98.00;;;;;;4978401;28;20464;-72
2022/09/03 20:33:36;;;;;;;3.80;2.97;;;18.30;98.00;;;;;;4967748;28;20136;-72
2022/09/03 20:39:27;;;;;;;4.00;3.55;;;18.30;98.00;;;;;;4958910;29;19914;-72
2022/09/03 20:45:25;;;;;;;8.25;4.68;;;18.20;98.00;;;;;;4959113;29;20030;-72
2022/09/03 20:51:20;;;;;;;4.50;4.10;;;18.20;98.00;;;;;;4958789;29;20139;-72
2022/09/03 21:04:17;;;;;;;5.82;5.20;;;18.40;98.00;;;;;;4958889;29;20038;-72
2022/09/03 21:14:13;;;;;;;8.13;5.13;;;18.90;98.00;;;;;;4958431;29;20042;-72
2022/09/03 21:20:25;;;;;;;8.15;3.65;;;18.90;98.00;;;;;;4958764;29;20328;-72
2022/09/03 21:26:24;;;;;;;6.18;4.18;;;19.20;98.00;;;;;;4958686;29;20096;-72
2022/09/03 21:39:29;;;;;;;3.67;2.78;;;19.40;98.00;;;;;;4958588;29;20034;-72
2022/09/03 21:45:29;;;;;;;3.63;3.33;;;19.30;98.00;;;;;;4958523;29;20099;-72
2022/09/03 21:54:39;;;;;;;4.57;3.25;;;19.00;98.00;;;;;;4958453;29;20356;-72
2022/09/03 22:00:34;;;;;;;6.40;3.30;;;18.90;98.00;;;;;;4961925;29;20089;-72
2022/09/03 22:09:55;;;;;;;5.32;4.18;;;18.90;98.00;;;;;;4961885;29;20070;-72
2022/09/03 22:15:49;;;;;;;3.47;3.17;;;18.70;98.00;;;;;;4961830;29;20030;-72
2022/09/03 22:25:07;;;;;;;5.25;3.50;;;18.30;98.00;;;;;;4961640;29;20055;-72
2022/09/03 22:31:16;;;;;;;5.97;3.03;;;18.30;98.00;;;;;;4961543;29;20027;-72
2022/09/03 22:37:41;;;;;;;2.75;2.50;;;18.20;98.00;;;;;;4967149;28;20355;-72
2022/09/03 22:54:12;;;;;;;2.72;2.17;;;18.50;98.00;;;;;;4959007;29;20094;-72
2022/09/03 23:00:07;;;;;;;3.97;2.55;;;18.70;98.00;;;;;;4958832;29;20422;-72
2022/09/03 23:06:07;;;;;;;3.13;2.83;;;18.80;98.00;;;;;;4958837;28;20166;-72
2022/09/03 23:18:41;;;;;;;3.88;2.95;;;18.80;98.00;;;;;;4953060;29;20045;-72
2022/09/03 23:24:57;;;;;;;4.35;2.58;;;18.70;98.00;;;;;;4960498;29;20037;-72
2022/09/03 23:30:44;;;;;;;4.13;2.40;;;18.50;98.00;;;;;;4960424;29;20038;-72
2022/09/03 23:44:06;;;;;;;2.58;2.08;;;18.10;98.00;;;;;;4960042;29;20057;-72
2022/09/03 23:54:09;;;;;;;2.88;2.17;;;17.80;98.00;;;;;;4959761;29;20071;-71
